sensor_id;sensor_type;location;lat;lon;timestamp;temperature;humidity
1379;DHT22;683;48.738;9.226;2023-02-01T00:36:47;2.70;99.90
1379;DHT22;683;48.738;9.226;2023-02-01T00:39:15;2.70;99.90
1379;DHT22;683;48.738;9.226;2023-02-01T00:41:42;2.70;99.90
1379;DHT22;683;48.738;9.226;2023-02-01T00:44:10;2.70;99.90
1379;DHT22;683;48.738;9.226;2023-02-01T00:46:37;2.70;99.90
1379;DHT22;683;48.738;9.226;2023-02-01T00:49:04;2.70;99.90
1379;DHT22;683;48.738;9.226;2023-02-01T00:51:33;2.70;99.90
1379;DHT22;683;48.738;9.226;2023-02-01T00:54:01;2.70;99.90
1379;DHT22;683;48.738;9.226;2023-02-01T00:56:29;2.70;99.90
1379;DHT22;683;48.738;9.226;2023-02-01T00:58:56;2.70;99.90
1379;DHT22;683;48.738;9.226;2023-02-01T01:01:27;2.70;99.90
1379;DHT22;683;48.738;9.226;2023-02-01T01:03:57;2.70;99.90
1379;DHT22;683;48.738;9.226;2023-02-01T01:06:26;2.70;99.90
1379;DHT22;683;48.738;9.226;2023-02-01T01:08:55;2.70;99.90
1379;DHT22;683;48.738;9.226;2023-02-01T01:11:25;2.80;99.90
1379;DHT22;683;48.738;9.226;2023-02-01T01:13:56;2.80;99.90
1379;DHT22;683;48.738;9.226;2023-02-01T01:16:29;2.80;99.90
1379;DHT22;683;48.738;9.226;2023-02-01T01:18:57;2.80;99.90
1379;DHT22;683;48.738;9.226;2023-02-01T01:21:26;2.70;99.90
1379;DHT22;683;48.738;9.226;2023-02-01T01:23:53;2.70;99.90
1379;DHT22;683;48.738;9.226;2023-02-01T01:26:27;2.80;99.90
1379;DHT22;683;48.738;9.226;2023-02-01T01:28:57;2.80;99.90
1379;DHT22;683;48.738;9.226;2023-02-01T01:31:27;2.80;99.90
1379;DHT22;683;48.738;9.226;2023-02-01T01:33:57;2.70;99.90
1379;DHT22;683;48.738;9.226;2023-02-01T01:36:26;2.80;99.90
1379;DHT22;683;48.738;9.226;2023-02-01T01:38:53;2.80;99.90
1379;DHT22;683;48.738;9.226;2023-02-01T01:41:23;2.80;99.90
1379;DHT22;683;48.738;9.226;2023-02-01T01:43:55;2.80;99.90
1379;DHT22;683;48.738;9.226;2023-02-01T01:46:27;2.80;99.90
1379;DHT22;683;48.738;9.226;2023-02-01T01:49:02;2.70;99.90
1379;DHT22;683;48.738;9.226;2023-02-01T01:51:36;2.80;99.90
1379;DHT22;683;48.738;9.226;2023-02-01T01:54:09;2.80;99.90
1379;DHT22;683;48.738;9.226;2023-02-01T01:56:38;2.80;99.90
1379;DHT22;683;48.738;9.226;2023-02-01T01:59:08;2.80;99.90
1379;DHT22;683;48.738;9.226;2023-02-01T02:01:36;2.90;99.90
1379;DHT22;683;48.738;9.226;2023-02-01T02:04:04;2.90;99.90
1379;DHT22;683;48.738;9.226;2023-02-01T02:06:39;2.90;99.90
1379;DHT22;683;48.738;9.226;2023-02-01T02:09:07;2.90;99.90
1379;DHT22;683;48.738;9.226;2023-02-01T02:11:35;2.90;99.90
1379;DHT22;683;48.738;9.226;2023-02-01T02:14:03;2.90;99.90
1379;DHT22;683;48.738;9.226;2023-02-01T02:20:16;3.00;99.90
1379;DHT22;683;48.738;9.226;2023-02-01T02:26:18;3.00;99.90
1379;DHT22;683;48.738;9.226;2023-02-01T02:29:26;3.00;99.90
1379;DHT22;683;48.738;9.226;2023-02-01T02:32:32;3.00;99.90
1379;DHT22;683;48.738;9.226;2023-02-01T02:35:10;3.00;99.90
1379;DHT22;683;48.738;9.226;2023-02-01T02:37:42;3.00;99.90
1379;DHT22;683;48.738;9.226;2023-02-01T02:40:16;3.00;99.90
1379;DHT22;683;48.738;9.226;2023-02-01T02:42:54;3.00;99.90
1379;DHT22;683;48.738;9.226;2023-02-01T02:45:47;3.00;99.90
1379;DHT22;683;48.738;9.226;2023-02-01T02:48:38;3.00;99.90
1379;DHT22;683;48.738;9.226;2023-02-01T02:51:14;3.00;99.90
1379;DHT22;683;48.738;9.226;2023-02-01T02:54:04;3.10;99.90
1379;DHT22;683;48.738;9.226;2023-02-01T02:56:50;3.00;99.90
1379;DHT22;683;48.738;9.226;2023-02-01T02:59:37;3.10;99.90
1379;DHT22;683;48.738;9.226;2023-02-01T03:02:22;3.10;99.90
1379;DHT22;683;48.738;9.226;2023-02-01T03:05:08;3.10;99.90
1379;DHT22;683;48.738;9.226;2023-02-01T03:08:04;3.10;99.90
1379;DHT22;683;48.738;9.226;2023-02-01T03:10:53;3.10;99.90
1379;DHT22;683;48.738;9.226;2023-02-01T03:13:28;3.00;99.90
1379;DHT22;683;48.738;9.226;2023-02-01T03:16:00;3.00;99.90
1379;DHT22;683;48.738;9.226;2023-02-01T03:18:33;3.00;99.90
1379;DHT22;683;48.738;9.226;2023-02-01T03:21:06;3.00;99.90
1379;DHT22;683;48.738;9.226;2023-02-01T03:23:37;2.90;99.90
1379;DHT22;683;48.738;9.226;2023-02-01T03:26:05;3.00;99.90
1379;DHT22;683;48.738;9.226;2023-02-01T03:28:34;3.00;99.90
1379;DHT22;683;48.738;9.226;2023-02-01T03:31:02;2.90;99.90
1379;DHT22;683;48.738;9.226;2023-02-01T03:33:30;3.00;99.90
1379;DHT22;683;48.738;9.226;2023-02-01T03:36:06;3.00;99.90
1379;DHT22;683;48.738;9.226;2023-02-01T03:38:43;3.00;99.90
1379;DHT22;683;48.738;9.226;2023-02-01T03:41:20;3.00;99.90
1379;DHT22;683;48.738;9.226;2023-02-01T03:43:53;3.00;99.90
1379;DHT22;683;48.738;9.226;2023-02-01T03:46:27;2.90;99.90
1379;DHT22;683;48.738;9.226;2023-02-01T03:49:01;3.00;99.90
1379;DHT22;683;48.738;9.226;2023-02-01T03:51:31;3.00;99.90
1379;DHT22;683;48.738;9.226;2023-02-01T03:54:01;2.90;99.90
1379;DHT22;683;48.738;9.226;2023-02-01T03:56:31;2.90;99.90
1379;DHT22;683;48.738;9.226;2023-02-01T03:58:59;3.00;99.90
1379;DHT22;683;48.738;9.226;2023-02-01T04:01:32;3.00;99.90
1379;DHT22;683;48.738;9.226;2023-02-01T04:04:00;3.00;99.90
1379;DHT22;683;48.738;9.226;2023-02-01T04:06:27;3.00;99.90
1379;DHT22;683;48.738;9.226;2023-02-01T04:09:01;3.00;99.90
1379;DHT22;683;48.738;9.226;2023-02-01T04:11:29;3.00;99.90
1379;DHT22;683;48.738;9.226;2023-02-01T04:13:58;3.00;99.90
1379;DHT22;683;48.738;9.226;2023-02-01T04:16:30;3.00;99.90
1379;DHT22;683;48.738;9.226;2023-02-01T04:18:57;3.00;99.90
1379;DHT22;683;48.738;9.226;2023-02-01T04:21:28;3.00;99.90
1379;DHT22;683;48.738;9.226;2023-02-01T04:23:55;3.00;99.90
1379;DHT22;683;48.738;9.226;2023-02-01T04:26:25;3.00;99.90
1379;DHT22;683;48.738;9.226;2023-02-01T04:28:53;3.10;99.90
1379;DHT22;683;48.738;9.226;2023-02-01T04:31:23;3.10;99.90
1379;DHT22;683;48.738;9.226;2023-02-01T04:33:52;3.10;99.90
1379;DHT22;683;48.738;9.226;2023-02-01T04:36:21;3.10;99.90
1379;DHT22;683;48.738;9.226;2023-02-01T04:38:48;3.10;99.90
1379;DHT22;683;48.738;9.226;2023-02-01T04:41:16;3.20;99.90
1379;DHT22;683;48.738;9.226;2023-02-01T04:43:46;3.20;99.90
1379;DHT22;683;48.738;9.226;2023-02-01T04:46:13;3.20;99.90
1379;DHT22;683;48.738;9.226;2023-02-01T04:48:41;3.20;99.90
1379;DHT22;683;48.738;9.226;2023-02-01T04:51:08;3.20;99.90
1379;DHT22;683;48.738;9.226;2023-02-01T04:53:36;3.20;99.90
1379;DHT22;683;48.738;9.226;2023-02-01T04:56:04;3.20;99.90
1379;DHT22;683;48.738;9.226;2023-02-01T04:58:32;3.20;99.90
1379;DHT22;683;48.738;9.226;2023-02-01T05:01:02;3.20;99.90
1379;DHT22;683;48.738;9.226;2023-02-01T05:03:30;3.20;99.90
1379;DHT22;683;48.738;9.226;2023-02-01T05:05:57;3.20;99.90
1379;DHT22;683;48.738;9.226;2023-02-01T05:08:25;3.20;99.90
1379;DHT22;683;48.738;9.226;2023-02-01T05:10:53;3.20;99.90
1379;DHT22;683;48.738;9.226;2023-02-01T05:13:20;3.20;99.90
1379;DHT22;683;48.738;9.226;2023-02-01T05:16:11;3.20;99.90
1379;DHT22;683;48.738;9.226;2023-02-01T05:18:38;3.20;99.90
1379;DHT22;683;48.738;9.226;2023-02-01T05:21:05;3.20;99.90
1379;DHT22;683;48.738;9.226;2023-02-01T05:23:33;3.20;99.90
1379;DHT22;683;48.738;9.226;2023-02-01T05:26:23;3.20;99.90
1379;DHT22;683;48.738;9.226;2023-02-01T05:28:51;3.20;99.90
1379;DHT22;683;48.738;9.226;2023-02-01T05:31:19;3.20;99.90
1379;DHT22;683;48.738;9.226;2023-02-01T05:33:47;3.30;99.90
1379;DHT22;683;48.738;9.226;2023-02-01T05:36:14;3.30;99.90
1379;DHT22;683;48.738;9.226;2023-02-01T05:38:42;3.30;99.90
1379;DHT22;683;48.738;9.226;2023-02-01T05:41:09;3.30;99.90
1379;DHT22;683;48.738;9.226;2023-02-01T05:43:36;3.30;99.90
1379;DHT22;683;48.738;9.226;2023-02-01T05:46:05;3.30;99.90
1379;DHT22;683;48.738;9.226;2023-02-01T05:48:34;3.30;99.90
1379;DHT22;683;48.738;9.226;2023-02-01T05:51:01;3.30;99.90
1379;DHT22;683;48.738;9.226;2023-02-01T05:53:29;3.30;99.90
1379;DHT22;683;48.738;9.226;2023-02-01T05:55:56;3.30;99.90
1379;DHT22;683;48.738;9.226;2023-02-01T05:58:26;3.30;99.90
1379;DHT22;683;48.738;9.226;2023-02-01T06:00:56;3.30;99.90
1379;DHT22;683;48.738;9.226;2023-02-01T06:03:25;3.30;99.90
1379;DHT22;683;48.738;9.226;2023-02-01T06:05:54;3.20;99.90
1379;DHT22;683;48.738;9.226;2023-02-01T06:08:21;3.20;99.90
1379;DHT22;683;48.738;9.226;2023-02-01T06:10:56;3.20;99.90
1379;DHT22;683;48.738;9.226;2023-02-01T06:13:24;3.10;99.90
1379;DHT22;683;48.738;9.226;2023-02-01T06:15:54;3.10;99.90
1379;DHT22;683;48.738;9.226;2023-02-01T06:18:21;3.00;99.90
1379;DHT22;683;48.738;9.226;2023-02-01T06:20:54;3.10;99.90
1379;DHT22;683;48.738;9.226;2023-02-01T06:23:23;3.20;99.90
1379;DHT22;683;48.738;9.226;2023-02-01T06:25:51;3.10;99.90
1379;DHT22;683;48.738;9.226;2023-02-01T06:28:19;3.10;99.90
1379;DHT22;683;48.738;9.226;2023-02-01T06:30:47;3.10;99.90
1379;DHT22;683;48.738;9.226;2023-02-01T06:33:16;3.10;99.90
1379;DHT22;683;48.738;9.226;2023-02-01T06:35:58;3.10;99.90
1379;DHT22;683;48.738;9.226;2023-02-01T06:38:26;3.10;99.90
1379;DHT22;683;48.738;9.226;2023-02-01T06:40:55;3.10;99.90
1379;DHT22;683;48.738;9.226;2023-02-01T06:43:22;3.10;99.90
1379;DHT22;683;48.738;9.226;2023-02-01T06:45:51;3.10;99.90
1379;DHT22;683;48.738;9.226;2023-02-01T06:48:18;3.10;99.90
1379;DHT22;683;48.738;9.226;2023-02-01T06:50:50;3.10;99.90
1379;DHT22;683;48.738;9.226;2023-02-01T06:53:18;3.20;99.90
1379;DHT22;683;48.738;9.226;2023-02-01T06:55:52;3.20;99.90
1379;DHT22;683;48.738;9.226;2023-02-01T06:58:27;3.20;99.90
1379;DHT22;683;48.738;9.226;2023-02-01T07:00:54;3.20;99.90
1379;DHT22;683;48.738;9.226;2023-02-01T07:03:24;3.20;99.90
1379;DHT22;683;48.738;9.226;2023-02-01T07:05:58;3.30;99.90
1379;DHT22;683;48.738;9.226;2023-02-01T07:08:27;3.30;99.90
1379;DHT22;683;48.738;9.226;2023-02-01T07:10:54;3.30;99.90
1379;DHT22;683;48.738;9.226;2023-02-01T07:13:22;3.30;99.90
1379;DHT22;683;48.738;9.226;2023-02-01T07:15:51;3.30;99.90
1379;DHT22;683;48.738;9.226;2023-02-01T07:18:21;3.30;99.90
1379;DHT22;683;48.738;9.226;2023-02-01T07:20:50;3.30;99.90
1379;DHT22;683;48.738;9.226;2023-02-01T07:23:17;3.40;99.90
1379;DHT22;683;48.738;9.226;2023-02-01T07:25:46;3.40;99.90
1379;DHT22;683;48.738;9.226;2023-02-01T07:28:13;3.40;99.90
1379;DHT22;683;48.738;9.226;2023-02-01T07:30:40;3.40;99.90
1379;DHT22;683;48.738;9.226;2023-02-01T07:33:08;3.40;99.90
1379;DHT22;683;48.738;9.226;2023-02-01T07:35:35;3.50;99.90
1379;DHT22;683;48.738;9.226;2023-02-01T07:38:02;3.50;99.90
1379;DHT22;683;48.738;9.226;2023-02-01T07:40:29;3.50;99.90
1379;DHT22;683;48.738;9.226;2023-02-01T07:43:00;3.60;99.90
1379;DHT22;683;48.738;9.226;2023-02-01T07:45:27;3.60;99.90
1379;DHT22;683;48.738;9.226;2023-02-01T07:47:55;3.60;99.90
1379;DHT22;683;48.738;9.226;2023-02-01T07:50:22;3.70;99.90
1379;DHT22;683;48.738;9.226;2023-02-01T07:52:49;3.70;99.90
1379;DHT22;683;48.738;9.226;2023-02-01T07:55:17;3.70;99.90
1379;DHT22;683;48.738;9.226;2023-02-01T07:57:44;3.70;99.90
1379;DHT22;683;48.738;9.226;2023-02-01T08:00:14;3.80;99.90
1379;DHT22;683;48.738;9.226;2023-02-01T08:03:00;3.90;99.90
1379;DHT22;683;48.738;9.226;2023-02-01T08:05:27;3.90;99.90
1379;DHT22;683;48.738;9.226;2023-02-01T08:07:54;3.90;99.90
1379;DHT22;683;48.738;9.226;2023-02-01T08:10:22;3.90;99.90
1379;DHT22;683;48.738;9.226;2023-02-01T08:12:49;3.90;99.90
1379;DHT22;683;48.738;9.226;2023-02-01T08:15:19;3.90;99.90
1379;DHT22;683;48.738;9.226;2023-02-01T08:17:47;3.90;99.90
1379;DHT22;683;48.738;9.226;2023-02-01T08:20:15;3.90;99.90
1379;DHT22;683;48.738;9.226;2023-02-01T08:22:43;3.90;99.90
1379;DHT22;683;48.738;9.226;2023-02-01T08:25:10;3.90;99.90
1379;DHT22;683;48.738;9.226;2023-02-01T08:27:37;3.90;99.90
1379;DHT22;683;48.738;9.226;2023-02-01T08:30:06;4.00;99.90
1379;DHT22;683;48.738;9.226;2023-02-01T08:32:35;4.00;99.90
1379;DHT22;683;48.738;9.226;2023-02-01T08:35:03;4.00;99.90
1379;DHT22;683;48.738;9.226;2023-02-01T08:37:37;4.00;99.90
1379;DHT22;683;48.738;9.226;2023-02-01T08:40:07;4.00;99.90
1379;DHT22;683;48.738;9.226;2023-02-01T08:42:34;4.10;99.90
1379;DHT22;683;48.738;9.226;2023-02-01T08:45:21;4.10;99.90
1379;DHT22;683;48.738;9.226;2023-02-01T08:47:51;4.30;99.90
1379;DHT22;683;48.738;9.226;2023-02-01T08:50:19;4.30;99.90
1379;DHT22;683;48.738;9.226;2023-02-01T08:52:50;4.40;99.90
1379;DHT22;683;48.738;9.226;2023-02-01T08:55:17;4.40;99.90
1379;DHT22;683;48.738;9.226;2023-02-01T08:57:45;4.50;99.90
1379;DHT22;683;48.738;9.226;2023-02-01T09:00:13;4.50;99.90
1379;DHT22;683;48.738;9.226;2023-02-01T09:02:41;4.50;99.90
1379;DHT22;683;48.738;9.226;2023-02-01T09:05:11;4.50;99.90
1379;DHT22;683;48.738;9.226;2023-02-01T09:07:39;4.50;99.90
1379;DHT22;683;48.738;9.226;2023-02-01T09:10:07;4.60;99.90
1379;DHT22;683;48.738;9.226;2023-02-01T09:12:35;4.60;99.90
1379;DHT22;683;48.738;9.226;2023-02-01T09:15:04;4.50;99.90
1379;DHT22;683;48.738;9.226;2023-02-01T09:17:33;4.60;99.90
1379;DHT22;683;48.738;9.226;2023-02-01T09:20:02;4.60;99.90
1379;DHT22;683;48.738;9.226;2023-02-01T09:22:30;4.50;99.90
1379;DHT22;683;48.738;9.226;2023-02-01T09:25:00;4.50;99.90
1379;DHT22;683;48.738;9.226;2023-02-01T09:27:28;4.50;99.90
1379;DHT22;683;48.738;9.226;2023-02-01T09:29:55;4.50;99.90
1379;DHT22;683;48.738;9.226;2023-02-01T09:32:23;4.40;99.90
1379;DHT22;683;48.738;9.226;2023-02-01T09:34:51;4.40;99.90
1379;DHT22;683;48.738;9.226;2023-02-01T09:37:19;4.40;99.90
1379;DHT22;683;48.738;9.226;2023-02-01T09:39:48;4.40;99.90
1379;DHT22;683;48.738;9.226;2023-02-01T09:42:30;4.50;99.90
1379;DHT22;683;48.738;9.226;2023-02-01T09:45:10;4.50;99.90
1379;DHT22;683;48.738;9.226;2023-02-01T09:47:49;4.60;99.90
1379;DHT22;683;48.738;9.226;2023-02-01T09:50:21;4.70;99.90
1379;DHT22;683;48.738;9.226;2023-02-01T09:52:55;4.90;99.90
1379;DHT22;683;48.738;9.226;2023-02-01T09:55:32;4.90;99.90
1379;DHT22;683;48.738;9.226;2023-02-01T09:58:06;5.00;99.90
1379;DHT22;683;48.738;9.226;2023-02-01T10:00:38;5.10;99.90
1379;DHT22;683;48.738;9.226;2023-02-01T10:03:11;5.10;99.90
1379;DHT22;683;48.738;9.226;2023-02-01T10:05:59;5.10;99.90
1379;DHT22;683;48.738;9.226;2023-02-01T10:08:36;5.20;99.90
1379;DHT22;683;48.738;9.226;2023-02-01T10:11:23;5.20;99.90
1379;DHT22;683;48.738;9.226;2023-02-01T10:14:00;5.30;99.90
1379;DHT22;683;48.738;9.226;2023-02-01T10:16:39;5.30;99.90
1379;DHT22;683;48.738;9.226;2023-02-01T10:19:24;5.30;99.90
1379;DHT22;683;48.738;9.226;2023-02-01T10:21:59;5.20;99.90
1379;DHT22;683;48.738;9.226;2023-02-01T10:24:41;5.10;99.90
1379;DHT22;683;48.738;9.226;2023-02-01T10:27:17;5.10;99.90
1379;DHT22;683;48.738;9.226;2023-02-01T10:29:54;5.20;99.90
1379;DHT22;683;48.738;9.226;2023-02-01T10:32:27;5.20;99.90
1379;DHT22;683;48.738;9.226;2023-02-01T10:34:58;5.20;99.90
1379;DHT22;683;48.738;9.226;2023-02-01T10:37:31;5.20;99.90
1379;DHT22;683;48.738;9.226;2023-02-01T10:40:01;5.30;99.90
1379;DHT22;683;48.738;9.226;2023-02-01T10:42:32;5.30;99.90
1379;DHT22;683;48.738;9.226;2023-02-01T10:45:02;5.40;99.90
1379;DHT22;683;48.738;9.226;2023-02-01T10:47:30;5.50;99.90
1379;DHT22;683;48.738;9.226;2023-02-01T10:50:03;5.50;99.90
1379;DHT22;683;48.738;9.226;2023-02-01T10:52:40;5.50;99.90
1379;DHT22;683;48.738;9.226;2023-02-01T10:55:32;5.50;99.90
1379;DHT22;683;48.738;9.226;2023-02-01T10:58:06;5.60;99.90
1379;DHT22;683;48.738;9.226;2023-02-01T11:00:42;5.70;99.90
1379;DHT22;683;48.738;9.226;2023-02-01T11:03:31;5.80;99.90
1379;DHT22;683;48.738;9.226;2023-02-01T11:06:00;5.80;99.90
1379;DHT22;683;48.738;9.226;2023-02-01T11:08:27;5.70;99.90
1379;DHT22;683;48.738;9.226;2023-02-01T11:11:00;5.60;99.90
1379;DHT22;683;48.738;9.226;2023-02-01T11:13:38;5.70;99.90
1379;DHT22;683;48.738;9.226;2023-02-01T11:16:13;5.80;99.90
1379;DHT22;683;48.738;9.226;2023-02-01T11:18:41;5.90;99.90
1379;DHT22;683;48.738;9.226;2023-02-01T11:21:11;6.00;99.90
1379;DHT22;683;48.738;9.226;2023-02-01T11:23:45;5.90;99.70
1379;DHT22;683;48.738;9.226;2023-02-01T11:26:19;5.90;99.90
1379;DHT22;683;48.738;9.226;2023-02-01T11:28:53;5.90;99.90
1379;DHT22;683;48.738;9.226;2023-02-01T11:31:26;6.00;99.60
1379;DHT22;683;48.738;9.226;2023-02-01T11:33:58;5.90;99.10
1379;DHT22;683;48.738;9.226;2023-02-01T11:36:30;5.80;98.90
1379;DHT22;683;48.738;9.226;2023-02-01T11:39:14;5.80;99.20
1379;DHT22;683;48.738;9.226;2023-02-01T11:41:58;5.80;99.00
1379;DHT22;683;48.738;9.226;2023-02-01T11:44:31;5.90;99.20
1379;DHT22;683;48.738;9.226;2023-02-01T11:47:25;6.00;99.00
1379;DHT22;683;48.738;9.226;2023-02-01T11:49:59;6.10;98.20
1379;DHT22;683;48.738;9.226;2023-02-01T11:52:40;6.20;97.90
1379;DHT22;683;48.738;9.226;2023-02-01T11:55:21;6.20;98.00
1379;DHT22;683;48.738;9.226;2023-02-01T11:58:12;6.10;97.90
1379;DHT22;683;48.738;9.226;2023-02-01T12:00:57;6.20;97.70
1379;DHT22;683;48.738;9.226;2023-02-01T12:04:18;6.40;97.90
1379;DHT22;683;48.738;9.226;2023-02-01T12:06:51;6.30;97.10
1379;DHT22;683;48.738;9.226;2023-02-01T12:09:35;6.40;97.20
1379;DHT22;683;48.738;9.226;2023-02-01T12:12:15;6.40;97.20
1379;DHT22;683;48.738;9.226;2023-02-01T12:15:08;6.30;96.90
1379;DHT22;683;48.738;9.226;2023-02-01T12:17:56;6.30;97.50
1379;DHT22;683;48.738;9.226;2023-02-01T12:20:49;6.30;97.30
1379;DHT22;683;48.738;9.226;2023-02-01T12:23:38;6.20;96.50
1379;DHT22;683;48.738;9.226;2023-02-01T12:26:38;6.20;96.50
1379;DHT22;683;48.738;9.226;2023-02-01T12:29:17;6.10;96.70
1379;DHT22;683;48.738;9.226;2023-02-01T12:32:00;6.00;96.80
1379;DHT22;683;48.738;9.226;2023-02-01T12:37:53;5.80;97.00
1379;DHT22;683;48.738;9.226;2023-02-01T12:40:32;5.80;97.10
1379;DHT22;683;48.738;9.226;2023-02-01T12:43:04;5.60;97.20
1379;DHT22;683;48.738;9.226;2023-02-01T12:45:36;5.60;97.10
1379;DHT22;683;48.738;9.226;2023-02-01T12:48:25;5.60;97.30
1379;DHT22;683;48.738;9.226;2023-02-01T12:51:01;5.60;97.60
1379;DHT22;683;48.738;9.226;2023-02-01T12:53:37;5.60;97.20
1379;DHT22;683;48.738;9.226;2023-02-01T12:56:18;5.70;97.30
1379;DHT22;683;48.738;9.226;2023-02-01T12:58:50;5.70;97.70
1379;DHT22;683;48.738;9.226;2023-02-01T13:01:22;5.60;97.50
1379;DHT22;683;48.738;9.226;2023-02-01T13:03:59;5.60;97.60
1379;DHT22;683;48.738;9.226;2023-02-01T13:06:37;5.50;97.60
1379;DHT22;683;48.738;9.226;2023-02-01T13:09:13;5.50;97.70
1379;DHT22;683;48.738;9.226;2023-02-01T13:11:44;5.40;97.70
1379;DHT22;683;48.738;9.226;2023-02-01T13:14:22;5.40;97.80
1379;DHT22;683;48.738;9.226;2023-02-01T13:16:53;5.30;98.00
1379;DHT22;683;48.738;9.226;2023-02-01T13:19:26;5.40;98.30
1379;DHT22;683;48.738;9.226;2023-02-01T13:21:59;5.40;98.20
1379;DHT22;683;48.738;9.226;2023-02-01T13:24:36;5.40;98.10
1379;DHT22;683;48.738;9.226;2023-02-01T13:27:05;5.40;98.10
1379;DHT22;683;48.738;9.226;2023-02-01T13:29:34;5.40;98.80
1379;DHT22;683;48.738;9.226;2023-02-01T13:32:20;5.40;99.30
1379;DHT22;683;48.738;9.226;2023-02-01T13:35:14;5.30;99.20
1379;DHT22;683;48.738;9.226;2023-02-01T13:38:02;5.40;98.90
1379;DHT22;683;48.738;9.226;2023-02-01T13:40:38;5.40;99.00
1379;DHT22;683;48.738;9.226;2023-02-01T13:43:11;5.40;98.30
1379;DHT22;683;48.738;9.226;2023-02-01T13:45:46;5.40;98.40
1379;DHT22;683;48.738;9.226;2023-02-01T13:48:21;5.40;98.60
1379;DHT22;683;48.738;9.226;2023-02-01T13:50:52;5.40;98.50
1379;DHT22;683;48.738;9.226;2023-02-01T13:53:27;5.40;98.90
1379;DHT22;683;48.738;9.226;2023-02-01T13:55:58;5.40;99.10
1379;DHT22;683;48.738;9.226;2023-02-01T13:58:31;5.40;99.20
1379;DHT22;683;48.738;9.226;2023-02-01T14:01:33;5.30;99.40
1379;DHT22;683;48.738;9.226;2023-02-01T14:04:03;5.30;99.70
1379;DHT22;683;48.738;9.226;2023-02-01T14:06:44;5.20;99.70
1379;DHT22;683;48.738;9.226;2023-02-01T14:09:32;5.20;99.90
1379;DHT22;683;48.738;9.226;2023-02-01T14:12:44;5.20;99.80
1379;DHT22;683;48.738;9.226;2023-02-01T14:15:31;5.20;99.80
1379;DHT22;683;48.738;9.226;2023-02-01T14:18:01;5.30;99.90
1379;DHT22;683;48.738;9.226;2023-02-01T14:20:39;5.30;99.90
1379;DHT22;683;48.738;9.226;2023-02-01T14:23:12;5.30;99.80
1379;DHT22;683;48.738;9.226;2023-02-01T14:25:41;5.30;99.60
1379;DHT22;683;48.738;9.226;2023-02-01T14:28:22;5.30;99.50
1379;DHT22;683;48.738;9.226;2023-02-01T14:30:50;5.30;99.30
1379;DHT22;683;48.738;9.226;2023-02-01T14:33:22;5.30;99.20
1379;DHT22;683;48.738;9.226;2023-02-01T14:36:02;5.30;98.90
1379;DHT22;683;48.738;9.226;2023-02-01T14:38:31;5.30;99.10
1379;DHT22;683;48.738;9.226;2023-02-01T14:41:25;5.30;99.00
1379;DHT22;683;48.738;9.226;2023-02-01T14:47:27;5.30;99.50
1379;DHT22;683;48.738;9.226;2023-02-01T14:49:59;5.30;99.20
1379;DHT22;683;48.738;9.226;2023-02-01T14:52:32;5.30;98.90
1379;DHT22;683;48.738;9.226;2023-02-01T14:55:05;5.20;99.00
1379;DHT22;683;48.738;9.226;2023-02-01T14:57:37;5.20;99.30
1379;DHT22;683;48.738;9.226;2023-02-01T15:00:18;5.20;99.10
1379;DHT22;683;48.738;9.226;2023-02-01T15:02:47;5.20;99.20
1379;DHT22;683;48.738;9.226;2023-02-01T15:05:31;5.20;99.20
1379;DHT22;683;48.738;9.226;2023-02-01T15:08:07;5.30;99.10
1379;DHT22;683;48.738;9.226;2023-02-01T15:10:42;5.30;99.20
1379;DHT22;683;48.738;9.226;2023-02-01T15:13:23;5.30;99.10
1379;DHT22;683;48.738;9.226;2023-02-01T15:16:04;5.30;99.30
1379;DHT22;683;48.738;9.226;2023-02-01T15:18:32;5.20;99.20
1379;DHT22;683;48.738;9.226;2023-02-01T15:21:01;5.20;99.50
1379;DHT22;683;48.738;9.226;2023-02-01T15:23:28;5.30;99.60
1379;DHT22;683;48.738;9.226;2023-02-01T15:25:56;5.30;99.50
1379;DHT22;683;48.738;9.226;2023-02-01T15:28:25;5.30;99.60
1379;DHT22;683;48.738;9.226;2023-02-01T15:31:00;5.20;99.50
1379;DHT22;683;48.738;9.226;2023-02-01T15:33:29;5.20;99.70
1379;DHT22;683;48.738;9.226;2023-02-01T15:36:08;5.20;99.60
1379;DHT22;683;48.738;9.226;2023-02-01T15:38:39;5.20;99.90
1379;DHT22;683;48.738;9.226;2023-02-01T15:41:10;5.10;99.90
1379;DHT22;683;48.738;9.226;2023-02-01T15:43:42;5.10;99.90
1379;DHT22;683;48.738;9.226;2023-02-01T15:46:13;5.10;99.90
1379;DHT22;683;48.738;9.226;2023-02-01T15:48:44;5.10;99.90
1379;DHT22;683;48.738;9.226;2023-02-01T15:51:14;5.10;99.90
1379;DHT22;683;48.738;9.226;2023-02-01T15:53:45;5.10;99.90
1379;DHT22;683;48.738;9.226;2023-02-01T15:56:13;5.00;99.90
1379;DHT22;683;48.738;9.226;2023-02-01T15:58:50;5.00;99.70
1379;DHT22;683;48.738;9.226;2023-02-01T16:01:18;5.00;99.70
1379;DHT22;683;48.738;9.226;2023-02-01T16:03:48;5.10;99.20
1379;DHT22;683;48.738;9.226;2023-02-01T16:06:29;5.10;99.00
1379;DHT22;683;48.738;9.226;2023-02-01T16:09:02;5.10;98.80
1379;DHT22;683;48.738;9.226;2023-02-01T16:11:31;5.10;98.80
1379;DHT22;683;48.738;9.226;2023-02-01T16:14:01;5.10;98.70
1379;DHT22;683;48.738;9.226;2023-02-01T16:16:29;5.10;98.50
1379;DHT22;683;48.738;9.226;2023-02-01T16:18:57;5.20;98.70
1379;DHT22;683;48.738;9.226;2023-02-01T16:21:27;5.20;98.80
1379;DHT22;683;48.738;9.226;2023-02-01T16:23:55;5.10;98.90
1379;DHT22;683;48.738;9.226;2023-02-01T16:26:27;5.20;99.00
1379;DHT22;683;48.738;9.226;2023-02-01T16:28:54;5.10;99.20
1379;DHT22;683;48.738;9.226;2023-02-01T16:31:26;5.10;99.00
1379;DHT22;683;48.738;9.226;2023-02-01T16:33:54;5.10;99.10
1379;DHT22;683;48.738;9.226;2023-02-01T16:36:22;5.10;98.90
1379;DHT22;683;48.738;9.226;2023-02-01T16:38:49;5.20;98.80
1379;DHT22;683;48.738;9.226;2023-02-01T16:41:21;5.10;99.00
1379;DHT22;683;48.738;9.226;2023-02-01T16:43:51;5.10;99.50
1379;DHT22;683;48.738;9.226;2023-02-01T16:46:22;5.10;99.80
1379;DHT22;683;48.738;9.226;2023-02-01T16:48:53;5.10;99.90
1379;DHT22;683;48.738;9.226;2023-02-01T16:51:21;5.00;99.90
1379;DHT22;683;48.738;9.226;2023-02-01T16:53:50;5.10;99.90
1379;DHT22;683;48.738;9.226;2023-02-01T16:56:20;5.00;99.90
1379;DHT22;683;48.738;9.226;2023-02-01T16:58:47;5.00;99.90
1379;DHT22;683;48.738;9.226;2023-02-01T17:01:16;5.00;99.90
1379;DHT22;683;48.738;9.226;2023-02-01T17:03:45;5.00;99.90
1379;DHT22;683;48.738;9.226;2023-02-01T17:06:16;4.90;99.90
1379;DHT22;683;48.738;9.226;2023-02-01T17:08:46;4.90;99.90
1379;DHT22;683;48.738;9.226;2023-02-01T17:11:17;4.80;99.90
1379;DHT22;683;48.738;9.226;2023-02-01T17:13:45;4.80;99.90
1379;DHT22;683;48.738;9.226;2023-02-01T17:16:21;4.80;99.90
1379;DHT22;683;48.738;9.226;2023-02-01T17:18:55;4.70;99.90
1379;DHT22;683;48.738;9.226;2023-02-01T17:21:27;4.70;99.90
1379;DHT22;683;48.738;9.226;2023-02-01T17:23:55;4.60;99.90
1379;DHT22;683;48.738;9.226;2023-02-01T17:26:25;4.60;99.90
1379;DHT22;683;48.738;9.226;2023-02-01T17:28:52;4.60;99.90
1379;DHT22;683;48.738;9.226;2023-02-01T17:31:19;4.60;99.90
1379;DHT22;683;48.738;9.226;2023-02-01T17:33:49;4.60;99.90
1379;DHT22;683;48.738;9.226;2023-02-01T17:36:18;4.60;99.90
1379;DHT22;683;48.738;9.226;2023-02-01T17:38:45;4.60;99.90
1379;DHT22;683;48.738;9.226;2023-02-01T17:41:13;4.60;99.90
1379;DHT22;683;48.738;9.226;2023-02-01T17:43:41;4.60;99.90
1379;DHT22;683;48.738;9.226;2023-02-01T17:46:11;4.60;99.90
1379;DHT22;683;48.738;9.226;2023-02-01T17:48:41;4.60;99.90
1379;DHT22;683;48.738;9.226;2023-02-01T17:51:15;4.60;99.90
1379;DHT22;683;48.738;9.226;2023-02-01T17:53:44;4.60;99.90
1379;DHT22;683;48.738;9.226;2023-02-01T17:56:13;4.60;99.90
1379;DHT22;683;48.738;9.226;2023-02-01T17:58:44;4.60;99.90
1379;DHT22;683;48.738;9.226;2023-02-01T18:01:19;4.60;99.90